.
WxDataArchive / Data Records for 2014-04-08
2014-04-07 April 2014 2014-04-09

Data Records for Tuesday, 08 April 2014

Time	Temp	Chill	HIndex	Humid	Dewpt	 Wind 	HiWind	WindDir	Rain 	Barom
-----	----	-----	------	-----	-----	------	------	-------	-----	-----
00:00	41.9	41.9	41.9	93	40.0	1	4	292	0.00	29.522 
00:05	41.9	41.9	41.9	93	40.0	1	4	315	0.00	29.522 
00:10	41.9	41.9	41.9	93	40.0	2	4	292	0.01	29.522 
00:15	41.9	41.9	41.9	93	40.0	1	4	338	0.00	29.524 
00:20	41.9	41.9	41.9	93	40.0	1	3	292	0.00	29.524 
00:25	41.9	41.9	41.9	93	40.0	1	3	292	0.01	29.524 
00:30	41.9	41.9	41.9	94	40.3	1	3	292	0.00	29.528 
00:35	41.9	41.9	41.9	94	40.3	2	4	292	0.01	29.528 
00:40	41.9	41.9	41.9	94	40.3	2	6	292	0.00	29.528 
00:45	41.9	41.9	41.9	94	40.3	3	9	292	0.00	29.540 
00:50	41.9	41.9	41.9	94	40.3	1	9	338	0.00	29.540 
00:55	41.9	41.9	41.9	94	40.3	1	3	315	0.01	29.540 
01:00	41.9	41.9	41.9	94	40.3	1	3	315	0.00	29.540 
01:05	41.9	41.9	41.9	94	40.3	1	3	315	0.00	29.540 
01:10	41.9	41.9	41.9	94	40.3	1	3	315	0.00	29.540 
01:15	41.9	41.9	41.9	94	40.3	0	2	315	0.00	29.543 
01:20	41.9	41.9	41.9	94	40.3	1	3	315	0.00	29.543 
01:25	41.9	41.9	41.9	94	40.3	1	3	270	0.00	29.543 
01:30	41.8	41.8	41.8	94	40.2	1	3	270	0.01	29.547 
01:35	41.8	41.8	41.8	94	40.2	1	4	270	0.00	29.547 
01:40	41.8	41.8	41.8	94	40.2	1	3	270	0.00	29.547 
01:45	41.8	41.8	41.8	94	40.2	2	3	292	0.00	29.549 
01:50	41.8	41.8	41.8	94	40.2	1	4	270	0.00	29.549 
01:55	41.6	41.6	41.6	94	40.0	2	4	270	0.00	29.549 
02:00	41.6	41.6	41.6	94	40.0	2	4	315	0.00	29.553 
02:05	41.6	41.6	41.6	94	40.0	1	4	270	0.00	29.553 
02:10	41.5	41.5	41.5	94	39.9	1	4	338	0.00	29.553 
02:15	41.5	41.5	41.5	94	39.9	1	3	248	0.00	29.546 
02:20	41.5	41.5	41.5	94	39.9	0	2	248	0.00	29.546 
02:25	41.5	41.5	41.5	94	39.9	1	3	248	0.00	29.546 
02:30	41.3	41.3	41.3	94	39.7	1	2	248	0.00	29.554 
02:35	41.3	41.3	41.3	94	39.7	0	2	248	0.00	29.554 
02:40	41.3	41.3	41.3	94	39.7	1	3	248	0.00	29.554 
02:45	41.2	41.2	41.2	94	39.6	1	3	248	0.00	29.554 
02:50	41.2	41.2	41.2	94	39.6	1	3	248	0.00	29.554 
02:55	41.2	41.2	41.2	94	39.6	0	2	248	0.00	29.554 
03:00	41.1	41.1	41.1	94	39.5	1	2	248	0.00	29.551 
03:05	41.1	41.1	41.1	94	39.5	0	1	248	0.00	29.551 
03:10	41.1	41.1	41.1	94	39.5	0	2	248	0.00	29.551 
03:15	41.1	41.1	41.1	94	39.5	0	2	248	0.00	29.554 
03:20	41.1	41.1	41.1	94	39.5	1	2	248	0.00	29.554 
03:25	40.9	40.9	40.9	94	39.3	0	2	248	0.00	29.554 
03:30	40.9	40.9	40.9	94	39.3	1	3	248	0.00	29.558 
03:35	40.9	40.9	40.9	94	39.3	1	2	248	0.00	29.558 
03:40	40.9	40.9	40.9	94	39.3	0	2	248	0.00	29.558 
03:45	40.9	40.9	40.9	94	39.3	0	3	248	0.00	29.559 
03:50	40.9	40.9	40.9	94	39.3	0	2	248	0.00	29.559 
03:55	40.8	40.8	40.8	94	39.2	1	3	248	0.00	29.559 
04:00	40.8	40.8	40.8	94	39.2	1	2	248	0.00	29.566 
04:05	40.8	40.8	40.8	94	39.2	1	3	248	0.00	29.566 
04:10	40.8	40.8	40.8	93	38.9	1	3	248	0.00	29.566 
04:15	40.8	40.8	40.8	93	38.9	1	3	248	0.00	29.573 
04:20	40.6	40.6	40.6	93	38.7	1	4	248	0.00	29.573 
04:25	40.6	40.6	40.6	93	38.7	1	3	248	0.00	29.573 
04:30	40.5	40.5	40.5	93	38.6	1	3	248	0.00	29.576 
04:35	40.5	40.5	40.5	92	38.4	1	3	248	0.00	29.576 
04:40	40.3	40.3	40.3	92	38.2	1	3	270	0.00	29.576 
04:45	40.2	40.2	40.2	92	38.1	1	3	270	0.00	29.579 
04:50	40.2	40.2	40.2	92	38.1	0	3	270	0.00	29.579 
04:55	40.1	40.1	40.1	92	38.0	1	3	248	0.00	29.579 
05:00	39.9	39.9	39.9	91	37.5	1	3	248	0.00	29.586 
05:05	39.8	39.8	39.8	91	37.4	1	3	248	0.00	29.586 
05:10	39.6	39.6	39.6	90	36.9	1	4	248	0.00	29.586 
05:15	39.5	39.5	39.5	90	36.8	1	3	248	0.00	29.595 
05:20	39.3	39.3	39.3	89	36.3	1	3	248	0.00	29.595 
05:25	39.3	39.3	39.3	89	36.3	1	3	248	0.00	29.595 
05:30	39.2	39.2	39.2	89	36.2	1	3	248	0.00	29.596 
05:35	39.1	39.1	39.1	88	35.9	1	3	248	0.00	29.596 
05:40	39.1	39.1	39.1	88	35.9	1	3	248	0.00	29.596 
05:45	38.9	38.9	38.9	88	35.7	1	2	248	0.00	29.596 
05:50	38.9	38.9	38.9	87	35.4	1	3	248	0.00	29.596 
05:55	38.9	38.9	38.9	87	35.4	1	3	248	0.00	29.596 
06:00	38.9	38.9	38.9	86	35.1	1	3	248	0.00	29.599 
06:05	38.8	38.8	38.8	86	35.0	1	2	248	0.00	29.599 
06:10	38.8	38.8	38.8	86	35.0	1	2	248	0.00	29.599 
06:15	38.8	38.8	38.8	85	34.7	1	3	248	0.00	29.602 
06:20	38.8	38.8	38.8	85	34.7	1	3	248	0.00	29.602 
06:25	38.6	38.6	38.6	85	34.5	1	3	248	0.00	29.602 
06:30	38.8	38.8	38.8	84	34.4	1	3	248	0.00	29.609 
06:35	38.8	38.8	38.8	84	34.4	1	3	248	0.00	29.609 
06:40	38.6	38.6	38.6	84	34.2	0	2	248	0.00	29.609 
06:45	38.6	38.6	38.6	84	34.2	0	2	248	0.00	29.611 
06:50	38.5	38.5	38.5	83	33.8	0	2	248	0.00	29.611 
06:55	38.5	38.5	38.5	83	33.8	1	3	248	0.00	29.611 
07:00	38.5	38.5	38.5	83	33.8	0	2	248	0.00	29.616 
07:05	38.3	38.3	38.3	83	33.6	0	2	248	0.00	29.616 
07:10	38.3	38.3	38.3	83	33.6	0	2	248	0.00	29.616 
07:15	38.2	38.2	38.2	83	33.5	0	1	248	0.00	29.626 
07:20	38.0	38.0	38.0	83	33.3	0	1	248	0.00	29.626 
07:25	38.0	38.0	38.0	84	33.6	0	2	248	0.00	29.626 
07:30	37.9	37.9	37.9	84	33.5	0	1	248	0.00	29.630 
07:35	37.9	37.9	37.9	84	33.5	0	1	248	0.00	29.630 
07:40	37.9	37.9	37.9	84	33.5	0	2	248	0.00	29.630 
07:45	37.9	37.9	37.9	83	33.2	0	2	248	0.00	29.632 
07:50	38.0	38.0	38.0	83	33.3	0	2	248	0.00	29.632 
07:55	38.0	38.0	38.0	83	33.3	0	1	248	0.00	29.632 
08:00	38.2	38.2	38.2	83	33.5	0	2	248	0.00	29.637 
08:05	38.3	38.3	38.3	82	33.3	0	2	248	0.00	29.637 
08:10	38.5	38.5	38.5	82	33.5	0	2	248	0.00	29.637 
08:15	38.6	38.6	38.6	81	33.3	0	2	248	0.00	29.645 
08:20	38.8	38.8	38.8	81	33.5	0	2	248	0.00	29.645 
08:25	39.1	39.1	39.1	80	33.5	1	2	248	0.00	29.645 
08:30	39.3	39.3	39.3	79	33.3	1	3	248	0.00	29.649 
08:35	39.8	39.8	39.8	78	33.5	1	3	248	0.00	29.649 
08:40	40.2	40.2	40.2	77	33.6	1	3	248	0.00	29.649 
08:45	40.5	40.5	40.5	77	33.9	1	3	248	0.00	29.654 
08:50	40.8	40.8	40.8	75	33.5	1	3	248	0.00	29.654 
08:55	41.1	41.1	41.1	74	33.5	1	4	270	0.00	29.654 
09:00	41.5	41.5	41.5	73	33.5	1	3	270	0.00	29.659 
09:05	41.6	41.6	41.6	72	33.3	2	4	270	0.00	29.659 
09:10	41.8	41.8	41.8	71	33.1	2	5	270	0.00	29.659 
09:15	41.9	41.9	41.9	71	33.2	2	5	270	0.00	29.658 
09:20	42.2	42.2	42.2	70	33.1	2	5	270	0.00	29.658 
09:25	42.3	42.3	42.3	69	32.9	2	6	270	0.00	29.658 
09:30	42.8	42.8	42.8	69	33.3	2	4	270	0.00	29.658 
09:35	43.2	43.2	43.2	68	33.4	3	4	270	0.00	29.658 
09:40	43.8	43.8	43.8	68	33.9	2	4	270	0.00	29.658 
09:45	44.2	44.2	44.2	67	33.9	2	4	270	0.00	29.659 
09:50	44.5	44.5	44.5	66	33.9	2	4	270	0.00	29.659 
09:55	45.1	45.1	45.1	66	34.4	2	5	248	0.00	29.659 
10:00	45.4	45.4	45.4	66	34.7	2	4	270	0.00	29.669 
10:05	45.8	45.8	45.8	66	35.1	2	4	270	0.00	29.669 
10:10	46.2	46.2	46.2	64	34.7	2	5	315	0.00	29.669 
10:15	46.7	46.7	46.7	64	35.2	3	5	315	0.00	29.669 
10:20	47.1	47.1	47.1	62	34.8	3	9	338	0.00	29.669 
10:25	47.6	47.6	47.6	62	35.2	3	6	270	0.00	29.669 
10:30	48.0	48.0	48.0	62	35.6	2	7	270	0.00	29.669 
10:35	48.6	48.6	48.6	61	35.8	2	5	270	0.00	29.669 
10:40	49.2	49.2	49.2	62	36.7	2	6	248	0.00	29.669 
10:45	49.5	49.5	49.5	58	35.3	2	4	270	0.00	29.671 
10:50	49.9	49.9	49.9	58	35.7	2	4	270	0.00	29.671 
10:55	50.4	50.4	50.4	58	36.2	1	4	292	0.00	29.671 
11:00	50.5	50.5	50.5	56	35.4	2	4	270	0.00	29.679 
11:05	51.0	51.0	51.0	58	36.7	1	3	270	0.00	29.679 
11:10	51.4	51.4	51.4	57	36.7	1	3	270	0.00	29.679 
11:15	51.7	51.7	51.7	55	36.1	2	4	292	0.00	29.680 
11:20	51.9	51.9	51.9	54	35.8	2	4	270	0.00	29.680 
11:25	52.3	52.3	52.3	55	36.6	2	5	338	0.00	29.680 
11:30	52.5	52.5	52.5	54	36.3	2	7	270	0.00	29.682 
11:35	52.6	52.6	52.6	54	36.4	2	5	270	0.00	29.682 
11:40	52.9	52.9	52.9	55	37.2	2	5	270	0.00	29.682 
11:45	53.1	53.1	53.1	55	37.4	2	5	270	0.00	29.684 
11:50	53.5	53.5	53.5	56	38.2	2	5	292	0.00	29.684 
11:55	53.6	53.6	53.6	54	37.4	2	5	270	0.00	29.684 
12:00	53.9	53.9	53.9	55	38.1	2	5	248	0.00	29.682 
12:05	54.1	54.1	54.1	54	37.8	2	4	270	0.00	29.682 
12:10	54.1	54.1	54.1	55	38.3	2	4	292	0.00	29.682 
12:15	54.2	54.2	54.2	55	38.4	1	4	315	0.00	29.682 
12:20	54.7	54.7	54.7	52	37.4	1	5	0	0.00	29.682 
12:25	55.0	55.0	55.0	50	36.7	2	5	270	0.00	29.682 
12:30	55.1	55.1	55.1	52	37.8	2	5	315	0.00	29.689 
12:35	55.3	55.3	55.3	49	36.5	2	5	315	0.00	29.689 
12:40	55.4	55.4	55.4	43	33.3	1	5	292	0.00	29.689 
12:45	55.9	55.9	55.9	49	37.0	1	4	292	0.00	29.686 
12:50	56.3	56.3	56.3	46	35.8	2	5	270	0.00	29.686 
12:55	56.5	56.5	56.5	50	38.1	1	3	338	0.00	29.686 
13:00	56.6	56.6	56.6	47	36.6	1	4	292	0.00	29.690 
13:05	56.5	56.5	56.5	43	34.3	2	6	315	0.00	29.690 
13:10	56.2	56.2	56.2	45	35.1	2	4	315	0.00	29.690 
13:15	56.0	56.0	56.0	44	34.4	2	5	292	0.00	29.692 
13:20	56.3	56.3	56.3	44	34.7	2	5	270	0.00	29.692 
13:25	56.9	56.9	56.9	46	36.3	1	4	338	0.00	29.692 
13:30	57.0	57.0	57.0	44	35.3	2	11	270	0.00	29.693 
13:35	56.6	56.6	56.6	44	34.9	1	3	270	0.00	29.693 
13:40	56.2	56.2	56.2	43	34.0	3	7	315	0.00	29.693 
13:45	56.0	56.0	56.0	44	34.4	3	7	270	0.00	29.694 
13:50	56.2	56.2	56.2	44	34.6	2	5	292	0.00	29.694 
13:55	56.3	56.3	56.3	44	34.7	3	6	270	0.00	29.694 
14:00	56.3	56.3	56.3	45	35.2	1	4	270	0.00	29.696 
14:05	56.6	56.6	56.6	44	34.9	2	5	315	0.00	29.696 
14:10	57.0	57.0	57.0	46	36.4	2	6	338	0.00	29.696 
14:15	56.9	56.9	56.9	45	35.8	2	4	292	0.00	29.698 
14:20	56.3	56.3	56.3	43	34.1	3	6	292	0.00	29.698 
14:25	56.2	56.2	56.2	45	35.1	1	3	270	0.00	29.698 
14:30	56.0	56.0	56.0	42	33.2	2	6	315	0.00	29.704 
14:35	56.2	56.2	56.2	42	33.4	2	5	315	0.00	29.704 
14:40	56.0	56.0	56.0	43	33.8	2	5	270	0.00	29.704 
14:45	55.7	55.7	55.7	42	33.0	2	5	248	0.00	29.709 
14:50	55.3	55.3	55.3	42	32.6	2	7	270	0.00	29.709 
14:55	55.0	55.0	55.0	44	33.5	2	4	248	0.00	29.709 
15:00	54.5	54.5	54.5	47	34.7	1	4	270	0.00	29.709 
15:05	54.4	54.4	54.4	45	33.5	1	3	292	0.00	29.709 
15:10	54.1	54.1	54.1	46	33.8	1	3	270	0.00	29.709 
15:15	53.9	53.9	53.9	47	34.1	1	3	270	0.00	29.712 
15:20	53.6	53.6	53.6	46	33.3	2	5	315	0.00	29.712 
15:25	53.6	53.6	53.6	47	33.9	1	4	270	0.00	29.712 
15:30	53.6	53.6	53.6	47	33.9	1	3	292	0.00	29.711 
15:35	53.6	53.6	53.6	46	33.3	1	3	292	0.00	29.711 
15:40	53.6	53.6	53.6	46	33.3	1	5	248	0.00	29.711 
15:45	53.5	53.5	53.5	46	33.2	2	5	315	0.00	29.711 
15:50	53.5	53.5	53.5	48	34.3	1	4	270	0.00	29.711 
15:55	53.6	53.6	53.6	49	34.9	1	4	292	0.00	29.711 
16:00	53.9	53.9	53.9	52	36.7	2	6	338	0.00	29.710 
16:05	54.1	54.1	54.1	50	35.9	2	9	338	0.00	29.710 
16:10	53.8	53.8	53.8	51	36.1	2	6	270	0.00	29.710 
16:15	53.5	53.5	53.5	52	36.3	2	6	315	0.00	29.710 
16:20	53.3	53.3	53.3	54	37.1	1	6	315	0.00	29.710 
16:25	53.6	53.6	53.6	53	36.9	2	5	338	0.00	29.710 
16:30	53.9	53.9	53.9	54	37.6	2	5	270	0.00	29.711 
16:35	54.7	54.7	54.7	54	38.4	2	6	338	0.00	29.711 
16:40	55.3	55.3	55.3	52	38.0	2	3	270	0.00	29.711 
16:45	55.4	55.4	55.4	52	38.1	3	10	270	0.00	29.708 
16:50	55.3	55.3	55.3	53	38.5	3	6	338	0.00	29.708 
16:55	55.1	55.1	55.1	54	38.8	2	6	292	0.00	29.708 
17:00	55.1	55.1	55.1	54	38.8	2	6	270	0.00	29.711 
17:05	55.0	55.0	55.0	54	38.7	3	6	292	0.00	29.711 
17:10	54.5	54.5	54.5	54	38.2	2	6	270	0.00	29.711 
17:15	54.2	54.2	54.2	54	37.9	2	6	292	0.00	29.714 
17:20	54.2	54.2	54.2	56	38.8	2	4	315	0.00	29.714 
17:25	54.4	54.4	54.4	56	39.0	1	2	315	0.00	29.714 
17:30	54.7	54.7	54.7	56	39.3	1	4	270	0.00	29.716 
17:35	54.7	54.7	54.7	55	38.9	2	4	315	0.00	29.716 
17:40	54.4	54.4	54.4	56	39.0	2	5	338	0.00	29.716 
17:45	54.2	54.2	54.2	58	39.7	1	3	292	0.00	29.723 
17:50	54.2	54.2	54.2	58	39.7	1	5	248	0.00	29.723 
17:55	54.2	54.2	54.2	60	40.6	1	4	315	0.00	29.723 
18:00	54.5	54.5	54.5	59	40.5	1	4	315	0.00	29.727 
18:05	55.0	55.0	55.0	57	40.0	2	4	270	0.00	29.727 
18:10	55.1	55.1	55.1	57	40.1	2	5	338	0.00	29.727 
18:15	55.1	55.1	55.1	58	40.6	3	5	270	0.00	29.727 
18:20	55.1	55.1	55.1	58	40.6	1	3	248	0.00	29.727 
18:25	54.8	54.8	54.8	59	40.7	1	4	248	0.00	29.727 
18:30	54.7	54.7	54.7	58	40.2	1	4	248	0.00	29.733 
18:35	54.5	54.5	54.5	59	40.5	1	4	338	0.00	29.733 
18:40	54.7	54.7	54.7	57	39.8	2	7	338	0.00	29.733 
18:45	54.7	54.7	54.7	55	38.9	2	5	338	0.00	29.740 
18:50	54.5	54.5	54.5	54	38.2	3	6	315	0.00	29.740 
18:55	54.4	54.4	54.4	54	38.1	2	3	315	0.00	29.740 
19:00	54.5	54.5	54.5	54	38.2	1	3	315	0.00	29.743 
19:05	54.7	54.7	54.7	52	37.4	2	4	315	0.00	29.743 
19:10	54.5	54.5	54.5	50	36.2	2	5	338	0.00	29.743 
19:15	54.5	54.5	54.5	50	36.2	1	2	292	0.00	29.749 
19:20	54.5	54.5	54.5	49	35.7	2	6	292	0.00	29.749 
19:25	54.2	54.2	54.2	49	35.5	2	5	315	0.00	29.749 
19:30	53.8	53.8	53.8	49	35.1	2	5	315	0.00	29.760 
19:35	53.5	53.5	53.5	49	34.8	2	7	270	0.00	29.760 
19:40	53.2	53.2	53.2	50	35.0	3	6	270	0.00	29.760 
19:45	53.1	53.1	53.1	51	35.5	1	4	292	0.00	29.765 
19:50	52.9	52.9	52.9	52	35.8	2	5	292	0.00	29.765 
19:55	52.8	52.8	52.8	52	35.7	2	4	292	0.00	29.765 
20:00	52.5	52.5	52.5	53	35.9	3	7	292	0.00	29.770 
20:05	52.2	52.2	52.2	53	35.6	2	9	292	0.00	29.770 
20:10	52.0	52.0	52.0	54	35.9	2	5	292	0.00	29.770 
20:15	51.7	51.7	51.7	55	36.1	1	4	270	0.00	29.774 
20:20	51.4	51.4	51.4	55	35.8	2	5	315	0.00	29.774 
20:25	51.1	51.1	51.1	56	36.0	0	1	270	0.00	29.774 
20:30	50.8	50.8	50.8	57	36.1	1	4	270	0.00	29.779 
20:35	50.7	50.7	50.7	58	36.5	1	3	270	0.00	29.779 
20:40	50.4	50.4	50.4	58	36.2	1	3	270	0.00	29.779 
20:45	50.2	50.2	50.2	58	36.0	1	3	292	0.00	29.784 
20:50	50.1	50.1	50.1	59	36.3	1	3	292	0.00	29.784 
20:55	49.9	49.9	49.9	59	36.1	1	3	292	0.00	29.784 
21:00	49.6	49.6	49.6	59	35.9	0	2	292	0.00	29.792 
21:05	49.4	49.4	49.4	60	36.1	1	4	292	0.00	29.792 
21:10	49.2	49.2	49.2	60	35.9	0	3	315	0.00	29.792 
21:15	49.1	49.1	49.1	60	35.8	0	2	315	0.00	29.792 
21:20	48.9	48.9	48.9	61	36.0	1	3	225	0.00	29.792 
21:25	48.8	48.8	48.8	61	36.0	1	3	270	0.00	29.792 
21:30	48.6	48.6	48.6	60	35.3	1	3	270	0.00	29.807 
21:35	48.6	48.6	48.6	60	35.3	1	3	315	0.00	29.807 
21:40	48.3	48.3	48.3	61	35.5	1	3	292	0.00	29.807 
21:45	48.2	48.2	48.2	60	35.0	0	3	248	0.00	29.814 
21:50	48.0	48.0	48.0	61	35.2	1	2	270	0.00	29.814 
21:55	47.9	47.9	47.9	61	35.1	0	2	270	0.00	29.814 
22:00	47.6	47.6	47.6	61	34.8	0	4	315	0.00	29.820 
22:05	47.4	47.4	47.4	62	35.0	0	3	315	0.00	29.820 
22:10	47.1	47.1	47.1	63	35.2	0	2	315	0.00	29.820 
22:15	47.0	47.0	47.0	63	35.1	1	3	315	0.00	29.818 
22:20	46.8	46.8	46.8	64	35.3	0	4	315	0.00	29.818 
22:25	46.7	46.7	46.7	63	34.8	1	3	315	0.00	29.818 
22:30	46.4	46.4	46.4	64	34.9	0	1	315	0.00	29.817 
22:35	46.2	46.2	46.2	64	34.7	0	2	315	0.00	29.817 
22:40	46.0	46.0	46.0	65	34.9	0	3	315	0.00	29.817 
22:45	45.8	45.8	45.8	65	34.7	1	3	315	0.00	29.820 
22:50	45.8	45.8	45.8	65	34.7	1	3	315	0.00	29.820 
22:55	45.7	45.7	45.7	65	34.6	0	3	315	0.00	29.820 
23:00	45.4	45.4	45.4	65	34.3	0	1	315	0.00	29.820 
23:05	45.2	45.2	45.2	65	34.1	0	2	315	0.00	29.820 
23:10	45.1	45.1	45.1	66	34.4	0	2	315	0.00	29.820 
23:15	44.9	44.9	44.9	66	34.2	0	3	315	0.00	29.819 
23:20	44.8	44.8	44.8	66	34.1	0	2	315	0.00	29.819 
23:25	44.6	44.6	44.6	66	34.0	0	3	292	0.00	29.819 
23:30	44.5	44.5	44.5	67	34.2	0	2	292	0.00	29.819 
23:35	44.3	44.3	44.3	67	34.0	0	2	292	0.00	29.819 
23:40	44.2	44.2	44.2	67	33.9	1	3	292	0.00	29.819 
23:45	44.2	44.2	44.2	67	33.9	1	3	292	0.00	29.819 
23:50	44.1	44.1	44.1	67	33.9	1	3	292	0.00	29.819 
23:55	43.9	43.9	43.9	68	34.0	0	2	292	0.00	29.819 

CoCoRaHS
IN-AL-39
A2 Web Hosting
Creative Commons License
GoDaddy
search engine by freefind advanced

loaded 2018-11-14 04:24:05 • last modified 2010-11-18 10:43:29
Privacy PolicyDisclaimer
• wx.awcolley.com is powered by PmWiki v.2002016 •
• all content (unless otherwise noted) © 2018 A W Colley